Time;durP1;ratioP1;P1;durP2;ratioP2;P2;SDS_P1;SDS_P2;PMS_P1;PMS_P2;Temp;Humidity;BMP_temperature;BMP_pressure;BME280_temperature;BME280_humidity;BME280_pressure;Samples;Min_cycle;Max_cycle;Signal;HPM_P1;HPM_P2
2021/08/25 00:01:37;;;;;;;10.02;3.83;;;16.80;99.90;;;;;;5016364;28;20169;-79
2021/08/25 00:04:03;;;;;;;5.30;4.32;;;16.90;99.90;;;;;;5016410;28;20168;-80
2021/08/25 00:06:29;;;;;;;7.85;3.63;;;16.80;99.90;;;;;;5016782;28;20193;-79
2021/08/25 00:08:55;;;;;;;12.95;4.20;;;16.70;99.90;;;;;;5016484;28;20177;-78
2021/08/25 00:11:21;;;;;;;3.95;3.55;;;16.70;99.90;;;;;;5016690;28;20234;-78
2021/08/25 00:13:47;;;;;;;7.60;4.95;;;16.70;99.90;;;;;;5016137;28;20266;-78
2021/08/25 00:16:14;;;;;;;5.10;4.63;;;16.50;99.90;;;;;;5016572;28;20633;-78
2021/08/25 00:18:39;;;;;;;6.55;5.30;;;16.50;99.90;;;;;;5015114;28;20291;-78
2021/08/25 00:21:05;;;;;;;5.22;4.55;;;16.50;99.90;;;;;;5016400;28;20648;-78
2021/08/25 00:23:31;;;;;;;5.45;4.15;;;16.50;99.90;;;;;;5016079;28;20532;-78
2021/08/25 00:25:58;;;;;;;6.07;4.47;;;16.80;99.90;;;;;;5015923;28;20514;-78
2021/08/25 00:28:24;;;;;;;7.00;4.70;;;16.80;99.90;;;;;;5016112;28;20168;-79
2021/08/25 00:30:50;;;;;;;5.93;3.78;;;16.60;99.90;;;;;;5015920;28;20175;-79
2021/08/25 00:33:16;;;;;;;4.65;4.25;;;16.70;99.90;;;;;;5015468;28;20200;-79
2021/08/25 00:35:41;;;;;;;6.40;4.07;;;16.60;99.90;;;;;;5016065;28;20578;-79
2021/08/25 00:38:07;;;;;;;5.75;4.10;;;16.50;99.90;;;;;;5015368;28;20200;-79
2021/08/25 00:40:33;;;;;;;6.10;5.20;;;16.50;99.90;;;;;;5014771;28;20172;-79
2021/08/25 00:43:09;;;;;;;5.03;4.30;;;16.60;99.90;;;;;;5015373;28;20181;-79
2021/08/25 00:45:45;;;;;;;6.30;5.05;;;16.50;99.90;;;;;;5013840;28;20168;-79
2021/08/25 00:48:17;;;;;;;6.80;6.07;;;16.40;99.90;;;;;;5014916;28;20180;-79
2021/08/25 00:50:54;;;;;;;6.32;5.72;;;16.40;99.90;;;;;;5013805;28;20629;-79
2021/08/25 00:53:22;;;;;;;5.57;4.93;;;16.30;99.90;;;;;;5014839;28;20683;-79
2021/08/25 00:55:51;;;;;;;6.13;4.43;;;16.30;99.90;;;;;;5015229;28;20169;-79
2021/08/25 00:58:20;;;;;;;5.88;4.90;;;16.20;99.90;;;;;;5013252;28;20534;-80
2021/08/25 01:00:53;;;;;;;4.78;4.18;;;16.20;99.90;;;;;;5013300;28;20196;-80
2021/08/25 01:03:25;;;;;;;5.40;4.38;;;16.10;99.90;;;;;;5014582;28;20181;-80
2021/08/25 01:05:52;;;;;;;5.72;4.13;;;16.10;99.90;;;;;;5014869;28;20172;-79
2021/08/25 01:08:18;;;;;;;7.07;4.60;;;16.30;99.90;;;;;;5014555;28;20557;-79
2021/08/25 01:10:44;;;;;;;4.95;3.92;;;16.20;99.90;;;;;;5013738;28;20176;-79
2021/08/25 01:13:11;;;;;;;4.70;4.25;;;16.30;99.90;;;;;;5014374;28;20283;-79
2021/08/25 01:15:42;;;;;;;4.90;4.38;;;16.10;99.90;;;;;;5015126;28;20165;-79
2021/08/25 01:18:12;;;;;;;5.78;4.35;;;15.90;99.90;;;;;;5014260;28;20247;-80
2021/08/25 01:20:39;;;;;;;6.10;4.82;;;15.90;99.90;;;;;;5014075;28;20184;-79
2021/08/25 01:23:05;;;;;;;8.20;4.45;;;16.00;99.90;;;;;;5014029;28;20165;-79
2021/08/25 01:25:33;;;;;;;14.75;4.88;;;16.00;99.90;;;;;;5013021;28;20194;-80
2021/08/25 01:28:04;;;;;;;8.68;5.13;;;16.10;99.90;;;;;;5013698;28;20270;-79
2021/08/25 01:30:32;;;;;;;4.45;3.72;;;16.10;99.90;;;;;;5014284;28;20177;-79
2021/08/25 01:32:59;;;;;;;5.25;4.13;;;16.00;99.90;;;;;;5014621;28;20291;-80
2021/08/25 01:35:39;;;;;;;4.75;4.30;;;15.90;99.90;;;;;;5014447;28;20169;-80
2021/08/25 01:38:34;;;;;;;13.02;3.70;;;16.00;99.90;;;;;;5013772;28;20200;-80
2021/08/25 01:41:02;;;;;;;4.75;4.30;;;16.00;99.90;;;;;;5011968;28;20633;-79
2021/08/25 01:43:27;;;;;;;4.95;4.50;;;16.00;99.90;;;;;;5013778;28;20172;-79
2021/08/25 01:45:53;;;;;;;7.32;4.68;;;16.10;99.90;;;;;;5014147;28;20168;-79
2021/08/25 01:48:19;;;;;;;15.38;5.03;;;16.10;99.90;;;;;;5013817;28;20198;-79
2021/08/25 01:50:44;;;;;;;7.05;4.65;;;16.00;99.90;;;;;;5014008;28;20173;-79
2021/08/25 01:53:15;;;;;;;9.40;4.30;;;15.90;99.90;;;;;;5013704;28;20559;-79
2021/08/25 01:55:41;;;;;;;6.60;4.45;;;15.80;99.90;;;;;;5013977;28;20175;-78
2021/08/25 01:58:07;;;;;;;4.50;4.07;;;15.70;99.90;;;;;;5012702;28;20192;-79
2021/08/25 02:00:33;;;;;;;5.85;4.40;;;15.70;99.90;;;;;;5014209;28;20168;-79
2021/08/25 02:02:58;;;;;;;5.00;4.40;;;15.80;99.90;;;;;;5013426;28;20176;-80
2021/08/25 02:05:24;;;;;;;5.18;4.63;;;15.70;99.90;;;;;;5014123;28;20176;-79
2021/08/25 02:07:50;;;;;;;6.50;4.10;;;15.40;99.90;;;;;;5013526;28;20287;-79
2021/08/25 02:10:16;;;;;;;5.55;4.15;;;15.40;99.90;;;;;;5013924;28;20174;-79
2021/08/25 02:12:41;;;;;;;5.65;4.35;;;15.50;99.90;;;;;;5013472;28;20180;-79
2021/08/25 02:15:07;;;;;;;5.10;4.60;;;15.70;99.90;;;;;;5013645;28;20199;-80
2021/08/25 02:17:33;;;;;;;6.55;4.50;;;15.50;99.90;;;;;;5013497;28;20180;-79
2021/08/25 02:19:59;;;;;;;8.05;4.95;;;15.50;99.90;;;;;;5012226;28;20179;-78
2021/08/25 02:22:24;;;;;;;25.45;5.68;;;15.50;99.90;;;;;;5013224;28;20227;-79
2021/08/25 02:24:50;;;;;;;5.72;5.18;;;15.40;99.90;;;;;;5013572;28;20512;-80
2021/08/25 02:27:15;;;;;;;5.63;5.13;;;15.30;99.90;;;;;;5013323;28;20204;-79
2021/08/25 02:29:41;;;;;;;8.05;5.43;;;15.20;99.90;;;;;;5013541;28;20607;-79
2021/08/25 02:32:07;;;;;;;6.53;5.90;;;15.50;99.90;;;;;;5013638;28;20172;-79
2021/08/25 02:34:32;;;;;;;11.75;5.47;;;15.50;99.90;;;;;;5014049;28;20230;-79
2021/08/25 02:36:58;;;;;;;6.63;5.65;;;15.60;99.90;;;;;;5014188;28;20192;-79
2021/08/25 02:39:24;;;;;;;8.40;5.78;;;15.60;99.90;;;;;;5014050;28;20251;-79
2021/08/25 02:41:49;;;;;;;6.25;5.32;;;15.60;99.90;;;;;;5014049;28;20613;-79
2021/08/25 02:44:16;;;;;;;8.40;5.82;;;15.50;99.90;;;;;;5013637;28;20179;-80
2021/08/25 02:46:41;;;;;;;13.68;5.82;;;15.60;99.90;;;;;;5013709;28;20188;-80
2021/08/25 02:49:07;;;;;;;6.88;5.90;;;15.50;99.90;;;;;;5012234;28;20255;-80
2021/08/25 02:51:32;;;;;;;10.77;5.43;;;15.20;99.90;;;;;;5013781;28;20179;-78
2021/08/25 02:53:58;;;;;;;5.57;4.30;;;15.20;99.90;;;;;;5014299;28;20207;-79
2021/08/25 02:56:24;;;;;;;17.23;5.57;;;15.40;99.90;;;;;;5014790;28;20184;-80
2021/08/25 02:58:50;;;;;;;7.50;5.50;;;15.50;99.90;;;;;;5034152;28;20224;-79
2021/08/25 03:01:16;;;;;;;7.25;5.40;;;15.50;99.90;;;;;;5035159;28;20180;-79
2021/08/25 03:03:41;;;;;;;9.57;5.15;;;15.50;99.90;;;;;;5021094;28;20200;-79
2021/08/25 03:06:07;;;;;;;5.60;5.10;;;15.40;99.90;;;;;;5019818;28;20171;-79
2021/08/25 03:08:37;;;;;;;6.28;5.53;;;15.50;99.90;;;;;;5022022;28;20645;-78
2021/08/25 03:11:03;;;;;;;5.72;5.20;;;15.40;99.90;;;;;;5022548;28;20173;-79
2021/08/25 03:13:29;;;;;;;5.70;5.03;;;15.40;99.90;;;;;;5018744;28;20251;-79
2021/08/25 03:15:58;;;;;;;9.60;4.82;;;15.40;99.90;;;;;;5018650;28;20145;-80
2021/08/25 03:18:24;;;;;;;6.32;5.18;;;15.40;99.90;;;;;;5022444;28;20188;-80
2021/08/25 03:20:50;;;;;;;5.72;5.13;;;15.30;99.90;;;;;;5024815;28;20238;-79
2021/08/25 03:23:15;;;;;;;8.85;5.97;;;15.20;99.90;;;;;;5018585;28;20532;-80
2021/08/25 03:25:41;;;;;;;5.70;5.05;;;15.00;99.90;;;;;;5021345;28;20617;-79
2021/08/25 03:28:06;;;;;;;9.02;5.18;;;15.10;99.90;;;;;;5015764;28;20200;-79
2021/08/25 03:30:32;;;;;;;6.72;5.90;;;15.10;99.90;;;;;;5022005;28;20171;-79
2021/08/25 03:33:03;;;;;;;9.98;5.55;;;15.10;99.90;;;;;;5001623;28;20204;-80
2021/08/25 03:35:29;;;;;;;11.30;5.35;;;15.10;99.90;;;;;;5022340;28;21011;-79
2021/08/25 03:37:54;;;;;;;5.55;5.05;;;15.20;99.90;;;;;;5022640;28;20179;-80
2021/08/25 03:40:20;;;;;;;7.60;5.82;;;15.10;99.90;;;;;;5023899;28;20204;-79
2021/08/25 03:42:48;;;;;;;6.63;5.00;;;15.10;99.90;;;;;;5021411;28;20164;-80
2021/08/25 03:45:14;;;;;;;10.13;5.47;;;15.30;99.90;;;;;;5022501;28;20303;-79
2021/08/25 03:47:39;;;;;;;5.82;4.95;;;15.30;99.90;;;;;;5023164;28;20200;-78
2021/08/25 03:50:06;;;;;;;10.45;5.20;;;15.40;99.90;;;;;;5020448;28;20196;-78
2021/08/25 03:52:32;;;;;;;5.40;4.90;;;15.30;99.90;;;;;;5019581;28;20232;-79
2021/08/25 03:54:58;;;;;;;6.50;5.40;;;15.40;99.90;;;;;;5021813;28;20240;-80
2021/08/25 03:57:23;;;;;;;10.27;5.28;;;15.20;99.90;;;;;;5021486;28;20196;-79
2021/08/25 03:59:49;;;;;;;6.57;5.15;;;15.10;99.90;;;;;;5024635;28;20172;-79
2021/08/25 04:02:16;;;;;;;13.32;5.65;;;15.00;99.90;;;;;;5023183;28;20294;-78
2021/08/25 04:04:41;;;;;;;7.03;5.05;;;15.10;99.90;;;;;;5020771;28;20164;-80
2021/08/25 04:07:07;;;;;;;10.93;5.65;;;14.90;99.90;;;;;;5021966;28;20215;-80
2021/08/25 04:09:32;;;;;;;12.90;6.38;;;15.00;99.90;;;;;;5020510;28;20661;-80
2021/08/25 04:11:58;;;;;;;15.82;6.50;;;15.00;99.90;;;;;;5018923;28;20169;-80
2021/08/25 04:14:24;;;;;;;8.32;5.85;;;15.00;99.90;;;;;;5017730;28;20200;-80
2021/08/25 04:16:49;;;;;;;6.05;5.45;;;15.00;99.90;;;;;;5021587;28;20188;-78
2021/08/25 04:19:15;;;;;;;10.35;5.88;;;15.00;99.90;;;;;;5019616;28;20679;-77
2021/08/25 04:21:41;;;;;;;6.10;5.20;;;15.00;99.90;;;;;;5024733;28;20168;-77
2021/08/25 04:24:06;;;;;;;8.32;5.80;;;14.90;99.90;;;;;;5023649;28;20187;-78
2021/08/25 04:26:32;;;;;;;8.63;5.63;;;15.00;99.90;;;;;;5020628;28;20318;-80
2021/08/25 04:28:58;;;;;;;9.43;5.80;;;15.10;99.90;;;;;;5022036;28;20632;-78
2021/08/25 04:31:23;;;;;;;10.15;5.80;;;15.10;99.90;;;;;;5020110;28;20205;-79
2021/08/25 04:33:49;;;;;;;7.30;5.32;;;15.10;99.90;;;;;;5022580;28;20203;-79
2021/08/25 04:36:15;;;;;;;16.25;5.90;;;15.10;99.90;;;;;;5020553;28;20197;-80
2021/08/25 04:38:40;;;;;;;6.70;5.78;;;15.00;99.90;;;;;;5021349;28;20164;-78
2021/08/25 04:41:06;;;;;;;7.32;5.70;;;14.90;99.90;;;;;;5023469;28;20176;-79
2021/08/25 04:43:32;;;;;;;8.48;6.28;;;14.90;99.90;;;;;;5019859;28;20176;-80
2021/08/25 04:45:58;;;;;;;6.95;6.10;;;14.90;99.90;;;;;;5019804;28;20238;-79
2021/08/25 04:48:23;;;;;;;11.68;6.68;;;14.90;99.90;;;;;;5019659;28;20169;-79
2021/08/25 04:50:49;;;;;;;13.10;5.65;;;14.80;99.90;;;;;;5021759;28;20514;-79
2021/08/25 04:53:15;;;;;;;7.63;5.78;;;14.70;99.90;;;;;;5020829;28;20204;-79
2021/08/25 04:55:40;;;;;;;11.60;6.35;;;14.70;99.90;;;;;;5022290;28;20243;-79
2021/08/25 04:58:09;;;;;;;10.07;5.70;;;14.80;99.90;;;;;;5018691;28;20188;-80
2021/08/25 05:00:34;;;;;;;9.63;6.95;;;14.80;99.90;;;;;;5019882;28;20259;-80
2021/08/25 05:03:00;;;;;;;9.75;6.10;;;14.90;99.90;;;;;;5019428;28;20212;-80
2021/08/25 05:05:27;;;;;;;11.73;6.97;;;15.10;99.90;;;;;;5025125;28;20172;-78
2021/08/25 05:07:52;;;;;;;10.93;6.15;;;15.10;99.90;;;;;;5023988;28;20185;-78
2021/08/25 05:10:18;;;;;;;12.10;6.25;;;15.00;99.90;;;;;;5023311;28;20226;-79
2021/08/25 05:12:45;;;;;;;8.40;6.88;;;15.00;99.90;;;;;;5019708;28;20168;-79
2021/08/25 05:15:12;;;;;;;8.02;6.70;;;15.00;99.90;;;;;;5022738;28;20181;-79
2021/08/25 05:17:38;;;;;;;9.23;6.63;;;15.00;99.90;;;;;;5019783;28;20164;-80
2021/08/25 05:20:06;;;;;;;7.72;5.95;;;14.90;99.90;;;;;;5019942;28;20243;-79
2021/08/25 05:22:32;;;;;;;7.45;5.97;;;15.00;99.90;;;;;;5021867;28;20164;-79
2021/08/25 05:24:58;;;;;;;8.52;6.43;;;15.00;99.90;;;;;;5023445;28;20247;-78
2021/08/25 05:27:26;;;;;;;6.30;5.68;;;15.10;99.90;;;;;;5019562;28;20193;-79
2021/08/25 05:29:52;;;;;;;7.47;6.30;;;15.10;99.90;;;;;;5020591;28;20172;-79
2021/08/25 05:32:18;;;;;;;6.97;6.30;;;15.20;99.90;;;;;;5022816;28;20180;-79
2021/08/25 05:34:44;;;;;;;12.82;6.82;;;15.20;99.90;;;;;;5021127;28;20188;-80
2021/08/25 05:37:10;;;;;;;16.20;7.20;;;15.10;99.90;;;;;;5017087;28;20177;-79
2021/08/25 05:39:35;;;;;;;8.05;6.97;;;15.20;99.90;;;;;;5018759;28;20252;-79
2021/08/25 05:42:01;;;;;;;7.10;6.38;;;15.30;99.90;;;;;;5020882;28;20161;-96
2021/08/25 05:44:27;;;;;;;7.88;6.38;;;15.20;99.90;;;;;;5017919;28;20215;-79
2021/08/25 05:46:52;;;;;;;8.70;6.55;;;15.20;99.90;;;;;;5022023;28;20219;-79
2021/08/25 05:49:18;;;;;;;7.68;6.75;;;15.20;99.90;;;;;;5019717;28;20211;-79
2021/08/25 05:51:44;;;;;;;15.02;6.88;;;15.00;99.90;;;;;;5016961;28;20164;-79
2021/08/25 05:54:09;;;;;;;10.13;6.82;;;15.10;99.90;;;;;;5019966;28;20561;-79
2021/08/25 05:56:35;;;;;;;13.15;7.45;;;15.00;99.90;;;;;;5019099;28;20184;-79
2021/08/25 05:59:01;;;;;;;9.18;7.15;;;15.00;99.90;;;;;;5019476;28;20168;-79
2021/08/25 06:01:47;;;;;;;7.68;6.90;;;15.20;99.90;;;;;;5025950;28;20173;-89
2021/08/25 06:04:12;;;;;;;10.43;6.70;;;15.10;99.90;;;;;;5023998;28;20188;-80
2021/08/25 06:06:38;;;;;;;15.60;7.05;;;15.30;99.90;;;;;;5013846;28;20688;-78
2021/08/25 06:09:04;;;;;;;11.77;7.45;;;15.50;99.90;;;;;;5013581;28;20564;-77
2021/08/25 06:11:30;;;;;;;7.82;6.85;;;15.60;99.90;;;;;;5013083;28;20259;-77
2021/08/25 06:13:56;;;;;;;11.65;6.30;;;15.60;99.90;;;;;;5013507;28;20291;-79
2021/08/25 06:16:21;;;;;;;13.80;7.43;;;15.40;99.90;;;;;;5013295;28;20191;-77
2021/08/25 06:18:47;;;;;;;7.90;6.97;;;15.40;99.90;;;;;;5013171;28;20165;-77
2021/08/25 06:21:16;;;;;;;9.18;7.30;;;15.30;99.90;;;;;;5011886;28;20188;-77
2021/08/25 06:23:44;;;;;;;17.40;7.30;;;15.30;99.90;;;;;;5013011;28;20169;-78
2021/08/25 06:26:10;;;;;;;10.18;7.25;;;15.60;99.90;;;;;;5012921;28;20172;-78
2021/08/25 06:28:36;;;;;;;11.35;7.15;;;15.80;99.90;;;;;;5013511;28;20168;-77
2021/08/25 06:31:01;;;;;;;14.38;6.82;;;15.90;99.90;;;;;;5024902;28;20167;-78
2021/08/25 06:33:27;;;;;;;8.75;7.25;;;15.80;99.90;;;;;;5031517;28;20651;-76
2021/08/25 06:35:53;;;;;;;16.70;7.50;;;15.80;99.90;;;;;;5028226;28;20148;-78
2021/08/25 06:38:18;;;;;;;15.95;7.50;;;16.10;99.90;;;;;;5028449;28;20197;-79
2021/08/25 06:40:44;;;;;;;10.45;7.75;;;16.20;99.90;;;;;;5013827;28;20177;-84
2021/08/25 06:43:10;;;;;;;8.65;6.65;;;16.20;99.90;;;;;;5015850;28;20172;-83
2021/08/25 06:45:36;;;;;;;10.43;7.45;;;16.40;99.90;;;;;;5013809;28;20172;-85
2021/08/25 06:48:02;;;;;;;9.43;6.82;;;16.50;99.90;;;;;;5016270;28;20653;-86
2021/08/25 06:50:27;;;;;;;15.23;7.03;;;16.30;99.90;;;;;;5015733;28;20171;-80
2021/08/25 06:52:53;;;;;;;15.13;6.93;;;16.10;99.90;;;;;;5018487;28;20176;-90
2021/08/25 06:55:18;;;;;;;14.38;7.88;;;16.20;99.90;;;;;;5015859;28;20581;-88
2021/08/25 06:57:44;;;;;;;7.05;6.32;;;16.20;99.90;;;;;;5015693;28;20188;-93
2021/08/25 07:00:10;;;;;;;11.25;7.13;;;16.20;99.90;;;;;;5017081;28;20660;-80
2021/08/25 07:02:36;;;;;;;15.25;7.63;;;16.20;99.90;;;;;;5016960;28;20282;-78
2021/08/25 07:05:01;;;;;;;12.57;7.47;;;16.30;99.90;;;;;;5024133;28;20164;-92
2021/08/25 07:07:27;;;;;;;7.70;6.90;;;16.40;99.90;;;;;;5020866;28;20330;-93
2021/08/25 07:09:53;;;;;;;12.55;7.45;;;16.40;99.90;;;;;;5022537;28;20630;-80
2021/08/25 07:12:21;;;;;;;7.32;6.63;;;16.50;99.90;;;;;;5013793;28;20184;-78
2021/08/25 07:14:47;;;;;;;12.88;6.55;;;16.40;99.90;;;;;;5016746;28;20211;-81
2021/08/25 07:17:13;;;;;;;8.32;7.15;;;16.20;99.90;;;;;;5017030;28;20200;-79
2021/08/25 07:19:41;;;;;;;13.52;7.35;;;16.50;99.90;;;;;;5028383;28;20199;-81
2021/08/25 07:22:07;;;;;;;10.48;7.53;;;16.60;99.90;;;;;;5032735;28;20188;-80
2021/08/25 07:24:33;;;;;;;10.88;6.80;;;16.80;99.90;;;;;;5048223;28;20171;-80
2021/08/25 07:26:59;;;;;;;8.55;7.07;;;17.00;99.90;;;;;;5047008;28;20187;-81
2021/08/25 07:29:24;;;;;;;13.52;7.10;;;17.00;99.90;;;;;;5045553;28;20160;-85
2021/08/25 07:31:50;;;;;;;6.68;6.07;;;16.90;99.90;;;;;;5041052;28;20264;-78
2021/08/25 07:34:16;;;;;;;10.75;7.15;;;17.00;99.90;;;;;;5049625;28;20245;-79
2021/08/25 07:36:41;;;;;;;10.50;6.97;;;17.10;99.90;;;;;;5049603;28;20188;-80
2021/08/25 07:39:07;;;;;;;7.40;6.60;;;17.30;99.90;;;;;;5054121;28;20184;-78
2021/08/25 07:41:33;;;;;;;8.40;6.45;;;17.30;99.90;;;;;;5052188;28;20160;-77
2021/08/25 07:43:58;;;;;;;13.32;7.15;;;17.50;99.90;;;;;;5052587;28;20172;-78
2021/08/25 07:46:31;;;;;;;10.80;6.38;;;17.60;99.90;;;;;;5053520;28;20183;-86
2021/08/25 07:48:58;;;;;;;9.38;5.88;;;17.50;99.90;;;;;;5055060;28;20217;-77
2021/08/25 07:51:23;;;;;;;9.43;6.60;;;17.80;99.90;;;;;;5055427;28;20160;-76
2021/08/25 07:53:49;;;;;;;12.00;6.13;;;17.90;99.90;;;;;;5054240;28;20258;-77
2021/08/25 07:56:14;;;;;;;13.50;7.03;;;18.00;99.90;;;;;;5038040;28;20176;-78
2021/08/25 07:58:40;;;;;;;8.68;6.95;;;18.20;99.90;;;;;;5033980;28;20172;-77
2021/08/25 08:01:06;;;;;;;10.32;6.38;;;18.30;99.90;;;;;;5033437;28;20207;-83
2021/08/25 08:03:31;;;;;;;6.60;5.30;;;18.30;99.90;;;;;;5035767;28;20176;-93
2021/08/25 08:05:57;;;;;;;7.40;5.45;;;18.50;99.90;;;;;;5033099;28;20210;-82
2021/08/25 08:08:25;;;;;;;8.40;5.18;;;18.60;99.90;;;;;;5033044;28;20179;-81
2021/08/25 08:10:52;;;;;;;14.80;5.47;;;18.60;99.90;;;;;;5036615;28;20156;-82
2021/08/25 08:13:18;;;;;;;6.60;5.18;;;18.60;99.90;;;;;;5042218;28;20235;-82
2021/08/25 08:15:45;;;;;;;19.38;6.15;;;18.60;99.90;;;;;;5042964;28;20218;-82
2021/08/25 08:18:15;;;;;;;8.32;5.78;;;18.90;99.90;;;;;;5036728;28;20283;-81
2021/08/25 08:20:41;;;;;;;9.25;6.00;;;18.90;99.90;;;;;;5036069;28;20184;-82
2021/08/25 08:23:06;;;;;;;5.93;5.43;;;18.90;99.90;;;;;;5039486;28;20175;-83
2021/08/25 08:25:32;;;;;;;9.27;5.82;;;19.00;99.90;;;;;;5038630;28;20651;-85
2021/08/25 08:27:58;;;;;;;6.97;5.22;;;19.20;99.90;;;;;;5038143;28;20195;-83
2021/08/25 08:30:24;;;;;;;9.75;5.57;;;19.30;99.90;;;;;;5038387;28;20218;-83
2021/08/25 08:32:50;;;;;;;7.30;4.25;;;19.30;99.90;;;;;;5039424;28;20176;-84
2021/08/25 08:35:16;;;;;;;9.30;5.38;;;19.30;99.90;;;;;;5039632;28;20628;-85
2021/08/25 08:37:41;;;;;;;15.23;5.85;;;19.50;99.90;;;;;;5040855;28;20194;-85
2021/08/25 08:40:09;;;;;;;6.80;5.57;;;19.50;99.90;;;;;;5039654;28;20183;-85
2021/08/25 08:42:36;;;;;;;8.98;4.53;;;19.50;99.90;;;;;;5038268;28;20174;-86
2021/08/25 08:45:04;;;;;;;5.90;5.13;;;19.60;99.90;;;;;;5038820;28;20180;-87
2021/08/25 08:47:30;;;;;;;9.32;5.88;;;19.70;99.90;;;;;;5039827;28;20195;-86
2021/08/25 08:49:58;;;;;;;10.27;5.95;;;19.90;99.90;;;;;;5042570;28;20271;-87
2021/08/25 08:52:25;;;;;;;7.57;5.30;;;20.00;99.90;;;;;;5042744;28;20168;-92
2021/08/25 08:54:57;;;;;;;10.70;5.43;;;20.20;99.90;;;;;;5051982;28;20203;-92
2021/08/25 08:57:25;;;;;;;11.70;5.05;;;20.10;99.90;;;;;;5047901;28;20200;-87
2021/08/25 08:59:52;;;;;;;18.17;5.30;;;20.20;99.90;;;;;;5038861;28;20179;-86
2021/08/25 09:02:45;;;;;;;8.68;5.80;;;20.40;99.90;;;;;;5050258;28;20183;-87
2021/08/25 09:05:26;;;;;;;5.57;4.80;;;20.40;99.90;;;;;;5051005;28;20159;-87
2021/08/25 09:08:00;;;;;;;18.63;5.20;;;20.50;99.90;;;;;;5049285;28;20200;-87
2021/08/25 09:10:43;;;;;;;5.45;4.18;;;20.70;99.90;;;;;;5027738;28;20168;-89
2021/08/25 09:13:11;;;;;;;6.65;4.30;;;20.70;99.90;;;;;;5024947;28;20282;-87
2021/08/25 09:15:40;;;;;;;4.15;3.75;;;20.90;99.90;;;;;;5022788;28;20187;-87
2021/08/25 09:18:08;;;;;;;13.48;4.25;;;20.90;99.90;;;;;;5019858;28;20184;-87
2021/08/25 09:20:40;;;;;;;11.07;4.68;;;20.60;99.90;;;;;;5019307;28;20188;-87
2021/08/25 09:23:18;;;;;;;5.35;3.83;;;20.60;99.90;;;;;;5017053;28;20172;-86
2021/08/25 09:25:48;;;;;;;5.85;3.92;;;20.70;99.90;;;;;;5018808;28;20271;-86
2021/08/25 09:28:18;;;;;;;3.30;3.00;;;20.80;99.90;;;;;;5004443;28;20202;-95
2021/08/25 09:31:07;;;;;;;7.32;3.60;;;20.80;99.90;;;;;;5038254;28;20259;-89
2021/08/25 09:33:41;;;;;;;5.78;3.08;;;20.70;99.90;;;;;;5035906;28;20226;-87
2021/08/25 09:36:12;;;;;;;7.60;3.03;;;20.70;99.90;;;;;;5036087;28;20172;-87
2021/08/25 09:38:39;;;;;;;7.32;3.38;;;20.70;99.90;;;;;;5035580;28;20200;-87
2021/08/25 09:41:10;;;;;;;6.65;2.78;;;20.60;99.90;;;;;;5035672;28;20545;-87
2021/08/25 09:43:41;;;;;;;3.60;2.90;;;20.60;99.90;;;;;;5038172;28;20172;-86
2021/08/25 09:46:11;;;;;;;3.75;2.67;;;20.60;99.90;;;;;;5039650;28;20175;-86
2021/08/25 09:48:41;;;;;;;9.40;3.17;;;20.90;99.90;;;;;;5038612;28;20171;-87
2021/08/25 09:51:08;;;;;;;8.82;3.08;;;21.20;99.90;;;;;;5038544;28;20239;-85
2021/08/25 09:53:35;;;;;;;2.95;2.67;;;21.20;99.90;;;;;;5036892;28;20251;-86
2021/08/25 09:56:01;;;;;;;7.53;3.13;;;21.30;99.90;;;;;;5035554;28;20175;-86
2021/08/25 09:58:28;;;;;;;6.00;2.67;;;21.10;99.90;;;;;;5039189;28;20187;-86
2021/08/25 10:00:54;;;;;;;5.22;3.40;;;21.10;99.90;;;;;;5036651;28;20198;-86
2021/08/25 10:03:21;;;;;;;6.35;2.80;;;21.10;99.90;;;;;;5037345;28;20183;-96
2021/08/25 10:05:47;;;;;;;6.93;2.75;;;21.10;99.90;;;;;;5036172;28;20216;-87
2021/08/25 10:08:16;;;;;;;8.18;2.80;;;21.30;99.90;;;;;;5036858;28;20192;-86
2021/08/25 10:10:44;;;;;;;4.22;2.45;;;21.40;99.90;;;;;;5045187;28;20182;-86
2021/08/25 10:13:12;;;;;;;4.43;2.20;;;21.50;99.90;;;;;;5043653;28;20167;-87
2021/08/25 10:15:45;;;;;;;5.55;2.80;;;21.50;99.90;;;;;;5046245;28;20194;-92
2021/08/25 10:18:38;;;;;;;7.45;2.63;;;21.40;99.90;;;;;;5041713;28;20196;-88
2021/08/25 10:21:29;;;;;;;6.55;2.55;;;21.40;99.90;;;;;;5040247;28;20188;-88
2021/08/25 10:23:58;;;;;;;3.20;1.90;;;21.50;99.90;;;;;;5038194;28;20180;-95
2021/08/25 10:26:25;;;;;;;8.70;2.50;;;21.50;99.90;;;;;;5037351;28;20607;-83
2021/08/25 10:29:07;;;;;;;7.82;3.13;;;21.70;99.90;;;;;;5036478;28;20168;-83
2021/08/25 10:31:48;;;;;;;4.13;3.05;;;21.90;99.90;;;;;;5036087;28;20182;-91
2021/08/25 10:34:22;;;;;;;2.78;2.38;;;21.90;99.90;;;;;;5035041;28;20737;-87
2021/08/25 10:36:48;;;;;;;5.97;2.60;;;21.90;99.90;;;;;;5034980;28;20676;-87
2021/08/25 10:39:30;;;;;;;8.23;2.05;;;21.90;99.90;;;;;;5036479;28;20168;-96
2021/08/25 10:41:56;;;;;;;4.72;2.75;;;21.80;99.90;;;;;;5035391;28;20685;-87
2021/08/25 10:44:38;;;;;;;5.65;2.13;;;21.80;99.90;;;;;;5035730;28;20206;-93
2021/08/25 10:47:05;;;;;;;3.63;2.40;;;21.90;99.90;;;;;;5036257;28;20528;-88
2021/08/25 10:49:38;;;;;;;3.72;2.08;;;21.80;99.90;;;;;;5036062;28;20167;-89
2021/08/25 10:52:16;;;;;;;2.05;1.75;;;21.90;99.90;;;;;;5035535;28;20699;-88
2021/08/25 10:54:45;;;;;;;9.90;1.92;;;22.00;99.90;;;;;;5035895;28;20213;-88
2021/08/25 10:57:15;;;;;;;3.72;2.15;;;21.90;99.90;;;;;;5035944;28;20199;-95
2021/08/25 10:59:41;;;;;;;6.05;2.53;;;21.90;99.90;;;;;;5038335;28;20183;-90
2021/08/25 11:02:08;;;;;;;2.67;1.88;;;21.80;99.90;;;;;;5054010;28;20172;-90
2021/08/25 11:04:34;;;;;;;3.20;1.98;;;21.80;99.90;;;;;;5053587;28;20167;-87
2021/08/25 11:07:02;;;;;;;2.80;2.38;;;21.90;99.90;;;;;;5052660;28;20203;-85
2021/08/25 11:09:37;;;;;;;4.55;1.80;;;22.00;99.90;;;;;;5044893;28;20157;-94
2021/08/25 11:12:12;;;;;;;4.00;2.30;;;22.10;99.90;;;;;;5037865;28;20179;-91
2021/08/25 11:14:39;;;;;;;6.97;1.80;;;22.10;99.90;;;;;;5035373;28;20555;-95
2021/08/25 11:17:16;;;;;;;4.75;2.33;;;22.00;99.90;;;;;;5034955;28;20200;-86
2021/08/25 11:19:45;;;;;;;3.65;2.65;;;21.90;99.90;;;;;;5032860;28;20186;-84
2021/08/25 11:22:25;;;;;;;3.55;1.85;;;21.90;99.90;;;;;;5033791;28;20182;-86
2021/08/25 11:24:56;;;;;;;2.97;2.22;;;22.10;99.90;;;;;;5021431;28;20513;-93
2021/08/25 11:27:23;;;;;;;3.33;1.80;;;22.00;99.90;;;;;;5013890;28;20939;-84
2021/08/25 11:30:11;;;;;;;3.58;1.60;;;22.10;99.90;;;;;;5013328;28;20668;-85
2021/08/25 11:32:55;;;;;;;4.97;2.47;;;22.00;99.90;;;;;;5013828;28;20173;-83
2021/08/25 11:35:25;;;;;;;5.05;2.28;;;22.00;99.90;;;;;;5013296;28;20176;-83
2021/08/25 11:37:51;;;;;;;6.25;2.50;;;22.20;99.90;;;;;;5013997;28;20215;-84
2021/08/25 11:40:20;;;;;;;2.83;2.05;;;22.30;99.90;;;;;;5013513;28;20168;-85
2021/08/25 11:42:46;;;;;;;4.05;2.33;;;22.30;99.90;;;;;;5013387;28;20204;-85
2021/08/25 11:45:16;;;;;;;3.42;2.22;;;22.40;99.90;;;;;;5013071;28;20211;-85
2021/08/25 11:47:53;;;;;;;3.03;2.25;;;22.40;99.90;;;;;;5013391;28;20233;-87
2021/08/25 11:50:22;;;;;;;2.90;1.80;;;22.40;99.90;;;;;;5013822;28;20200;-85
2021/08/25 11:52:48;;;;;;;2.40;1.95;;;22.30;99.90;;;;;;5014334;28;20165;-91
2021/08/25 11:55:15;;;;;;;4.50;2.58;;;22.30;99.90;;;;;;5015240;28;20668;-84
2021/08/25 11:57:42;;;;;;;4.22;2.10;;;22.30;99.90;;;;;;5019311;28;20180;-87
2021/08/25 12:00:10;;;;;;;3.17;2.20;;;22.20;99.90;;;;;;5019202;28;20176;-85
2021/08/25 12:02:56;;;;;;;2.97;2.35;;;22.30;99.90;;;;;;5017644;28;20168;-86
2021/08/25 12:05:24;;;;;;;7.45;2.17;;;22.30;99.90;;;;;;5018392;28;20168;-85
2021/08/25 12:08:27;;;;;;;3.22;2.13;;;22.30;99.90;;;;;;5019757;28;20270;-86
2021/08/25 12:11:13;;;;;;;3.60;2.17;;;22.40;99.90;;;;;;5007443;28;20184;-87
2021/08/25 12:13:44;;;;;;;4.90;2.45;;;22.30;99.90;;;;;;5022967;28;20211;-86
2021/08/25 12:16:35;;;;;;;3.47;2.20;;;22.20;99.90;;;;;;5023373;28;20180;-86
2021/08/25 12:19:03;;;;;;;2.47;2.13;;;22.30;99.90;;;;;;5023398;28;20168;-94
2021/08/25 12:21:31;;;;;;;3.45;2.40;;;22.40;99.90;;;;;;5027383;28;20180;-87
2021/08/25 12:24:03;;;;;;;3.65;2.28;;;22.50;99.90;;;;;;5026913;28;20164;-87
2021/08/25 12:26:31;;;;;;;4.32;2.10;;;22.30;99.90;;;;;;5024050;28;20264;-86
2021/08/25 12:28:58;;;;;;;5.45;2.42;;;22.20;99.90;;;;;;5016576;28;20282;-84
2021/08/25 12:31:34;;;;;;;4.05;2.40;;;22.50;99.90;;;;;;5049851;28;20171;-85
2021/08/25 12:34:12;;;;;;;5.22;2.08;;;22.70;99.90;;;;;;5053369;28;20203;-85
2021/08/25 12:36:52;;;;;;;3.50;2.90;;;22.80;99.90;;;;;;5058864;28;20239;-85
2021/08/25 12:39:22;;;;;;;4.30;2.58;;;22.80;99.90;;;;;;5056450;28;20210;-85
2021/08/25 12:41:48;;;;;;;8.15;2.88;;;22.60;99.90;;;;;;5040699;28;20164;-85
2021/08/25 12:44:16;;;;;;;4.15;2.35;;;22.40;99.90;;;;;;5038935;28;20171;-87
2021/08/25 12:47:02;;;;;;;3.67;2.83;;;22.40;99.90;;;;;;5038385;28;20621;-90
2021/08/25 12:49:30;;;;;;;6.50;2.67;;;22.50;99.90;;;;;;5039105;28;20259;-86
2021/08/25 12:51:57;;;;;;;7.40;3.17;;;22.60;99.90;;;;;;5036753;28;20519;-84